sensor_id;sensor_type;location;lat;lon;timestamp;temperature;humidity
12708;DHT22;6418;50.824;4.718;2022-11-30T00:01:51;6.10;99.90
12708;DHT22;6418;50.824;4.718;2022-11-30T00:04:18;6.10;99.90
12708;DHT22;6418;50.824;4.718;2022-11-30T00:06:46;6.10;99.90
12708;DHT22;6418;50.824;4.718;2022-11-30T00:09:14;6.10;99.90
12708;DHT22;6418;50.824;4.718;2022-11-30T00:11:40;6.10;99.90
12708;DHT22;6418;50.824;4.718;2022-11-30T00:14:07;6.10;99.90
12708;DHT22;6418;50.824;4.718;2022-11-30T00:16:34;6.10;99.90
12708;DHT22;6418;50.824;4.718;2022-11-30T00:19:01;6.10;99.90
12708;DHT22;6418;50.824;4.718;2022-11-30T00:21:28;6.10;99.90
12708;DHT22;6418;50.824;4.718;2022-11-30T00:23:56;6.10;99.90
12708;DHT22;6418;50.824;4.718;2022-11-30T00:26:23;6.10;99.90
12708;DHT22;6418;50.824;4.718;2022-11-30T00:28:50;6.10;99.90
12708;DHT22;6418;50.824;4.718;2022-11-30T00:31:17;6.10;99.90
12708;DHT22;6418;50.824;4.718;2022-11-30T00:33:45;6.10;99.90
12708;DHT22;6418;50.824;4.718;2022-11-30T00:36:13;6.10;99.90
12708;DHT22;6418;50.824;4.718;2022-11-30T00:38:41;6.10;99.90
12708;DHT22;6418;50.824;4.718;2022-11-30T00:41:10;6.10;99.90
12708;DHT22;6418;50.824;4.718;2022-11-30T00:43:37;6.10;99.90
12708;DHT22;6418;50.824;4.718;2022-11-30T00:46:04;6.20;99.90
12708;DHT22;6418;50.824;4.718;2022-11-30T00:48:33;6.10;99.90
12708;DHT22;6418;50.824;4.718;2022-11-30T00:51:00;6.10;99.90
12708;DHT22;6418;50.824;4.718;2022-11-30T00:53:27;6.20;99.90
12708;DHT22;6418;50.824;4.718;2022-11-30T00:55:54;6.10;99.90
12708;DHT22;6418;50.824;4.718;2022-11-30T00:58:22;6.20;99.90
12708;DHT22;6418;50.824;4.718;2022-11-30T01:00:49;6.10;99.90
12708;DHT22;6418;50.824;4.718;2022-11-30T01:03:16;6.10;99.90
12708;DHT22;6418;50.824;4.718;2022-11-30T01:05:43;6.20;99.90
12708;DHT22;6418;50.824;4.718;2022-11-30T01:08:11;6.20;99.90
12708;DHT22;6418;50.824;4.718;2022-11-30T01:10:40;6.10;99.90
12708;DHT22;6418;50.824;4.718;2022-11-30T01:13:07;6.10;99.90
12708;DHT22;6418;50.824;4.718;2022-11-30T01:15:37;6.10;99.90
12708;DHT22;6418;50.824;4.718;2022-11-30T01:18:05;6.10;99.90
12708;DHT22;6418;50.824;4.718;2022-11-30T01:20:32;6.10;99.90
12708;DHT22;6418;50.824;4.718;2022-11-30T01:22:59;6.10;99.90
12708;DHT22;6418;50.824;4.718;2022-11-30T01:25:26;6.10;99.90
12708;DHT22;6418;50.824;4.718;2022-11-30T01:27:52;6.10;99.90
12708;DHT22;6418;50.824;4.718;2022-11-30T01:30:20;6.10;99.90
12708;DHT22;6418;50.824;4.718;2022-11-30T01:32:48;6.10;99.90
12708;DHT22;6418;50.824;4.718;2022-11-30T01:35:15;6.10;99.90
12708;DHT22;6418;50.824;4.718;2022-11-30T01:37:42;6.10;99.90
12708;DHT22;6418;50.824;4.718;2022-11-30T01:40:10;6.10;99.90
12708;DHT22;6418;50.824;4.718;2022-11-30T01:42:37;6.10;99.90
12708;DHT22;6418;50.824;4.718;2022-11-30T01:45:11;6.10;99.90
12708;DHT22;6418;50.824;4.718;2022-11-30T01:47:40;6.10;99.90
12708;DHT22;6418;50.824;4.718;2022-11-30T01:50:12;6.10;99.90
12708;DHT22;6418;50.824;4.718;2022-11-30T01:52:43;6.20;99.90
12708;DHT22;6418;50.824;4.718;2022-11-30T01:55:17;6.10;99.90
12708;DHT22;6418;50.824;4.718;2022-11-30T01:57:47;6.10;99.90
12708;DHT22;6418;50.824;4.718;2022-11-30T02:00:16;6.10;99.90
12708;DHT22;6418;50.824;4.718;2022-11-30T02:02:48;6.10;99.90
12708;DHT22;6418;50.824;4.718;2022-11-30T02:05:19;6.10;99.90
12708;DHT22;6418;50.824;4.718;2022-11-30T02:07:46;6.10;99.90
12708;DHT22;6418;50.824;4.718;2022-11-30T02:10:15;6.10;99.90
12708;DHT22;6418;50.824;4.718;2022-11-30T02:12:51;6.10;99.90
12708;DHT22;6418;50.824;4.718;2022-11-30T02:15:26;6.10;99.90
12708;DHT22;6418;50.824;4.718;2022-11-30T02:18:00;6.10;99.90
12708;DHT22;6418;50.824;4.718;2022-11-30T02:20:40;6.10;99.90
12708;DHT22;6418;50.824;4.718;2022-11-30T02:23:34;6.10;99.90
12708;DHT22;6418;50.824;4.718;2022-11-30T02:26:16;6.00;99.90
12708;DHT22;6418;50.824;4.718;2022-11-30T02:29:02;6.00;99.90
12708;DHT22;6418;50.824;4.718;2022-11-30T02:31:37;6.10;99.90
12708;DHT22;6418;50.824;4.718;2022-11-30T02:34:07;6.10;99.90
12708;DHT22;6418;50.824;4.718;2022-11-30T02:36:36;6.00;99.90
12708;DHT22;6418;50.824;4.718;2022-11-30T02:39:03;6.00;99.90
12708;DHT22;6418;50.824;4.718;2022-11-30T02:41:35;6.00;99.90
12708;DHT22;6418;50.824;4.718;2022-11-30T02:44:05;6.00;99.90
12708;DHT22;6418;50.824;4.718;2022-11-30T02:46:49;6.00;99.90
12708;DHT22;6418;50.824;4.718;2022-11-30T02:49:25;6.00;99.90
12708;DHT22;6418;50.824;4.718;2022-11-30T02:51:56;6.00;99.90
12708;DHT22;6418;50.824;4.718;2022-11-30T02:54:23;6.00;99.90
12708;DHT22;6418;50.824;4.718;2022-11-30T02:56:50;6.00;99.90
12708;DHT22;6418;50.824;4.718;2022-11-30T02:59:19;6.00;99.90
12708;DHT22;6418;50.824;4.718;2022-11-30T03:01:46;6.00;99.90
12708;DHT22;6418;50.824;4.718;2022-11-30T03:04:13;5.90;99.90
12708;DHT22;6418;50.824;4.718;2022-11-30T03:06:40;5.90;99.90
12708;DHT22;6418;50.824;4.718;2022-11-30T03:09:07;5.90;99.90
12708;DHT22;6418;50.824;4.718;2022-11-30T03:11:34;5.90;99.90
12708;DHT22;6418;50.824;4.718;2022-11-30T03:14:02;5.90;99.90
12708;DHT22;6418;50.824;4.718;2022-11-30T03:16:31;5.90;99.90
12708;DHT22;6418;50.824;4.718;2022-11-30T03:18:58;5.90;99.90
12708;DHT22;6418;50.824;4.718;2022-11-30T03:21:25;5.90;99.90
12708;DHT22;6418;50.824;4.718;2022-11-30T03:23:52;5.90;99.90
12708;DHT22;6418;50.824;4.718;2022-11-30T03:26:19;5.90;99.90
12708;DHT22;6418;50.824;4.718;2022-11-30T03:28:46;5.80;99.90
12708;DHT22;6418;50.824;4.718;2022-11-30T03:31:13;5.90;99.90
12708;DHT22;6418;50.824;4.718;2022-11-30T03:33:42;5.80;99.90
12708;DHT22;6418;50.824;4.718;2022-11-30T03:36:10;5.80;99.90
12708;DHT22;6418;50.824;4.718;2022-11-30T03:38:37;5.80;99.90
12708;DHT22;6418;50.824;4.718;2022-11-30T03:41:06;5.80;99.90
12708;DHT22;6418;50.824;4.718;2022-11-30T03:43:33;5.80;99.90
12708;DHT22;6418;50.824;4.718;2022-11-30T03:46:00;5.80;99.90
12708;DHT22;6418;50.824;4.718;2022-11-30T03:48:27;5.80;99.90
12708;DHT22;6418;50.824;4.718;2022-11-30T03:50:55;5.70;99.90
12708;DHT22;6418;50.824;4.718;2022-11-30T03:53:23;5.70;99.90
12708;DHT22;6418;50.824;4.718;2022-11-30T03:55:54;5.70;99.90
12708;DHT22;6418;50.824;4.718;2022-11-30T03:58:21;5.70;99.90
12708;DHT22;6418;50.824;4.718;2022-11-30T04:00:49;5.70;99.90
12708;DHT22;6418;50.824;4.718;2022-11-30T04:03:17;5.60;99.90
12708;DHT22;6418;50.824;4.718;2022-11-30T04:05:43;5.60;99.90
12708;DHT22;6418;50.824;4.718;2022-11-30T04:08:13;5.60;99.90
12708;DHT22;6418;50.824;4.718;2022-11-30T04:10:40;5.60;99.90
12708;DHT22;6418;50.824;4.718;2022-11-30T04:13:07;5.60;99.90
12708;DHT22;6418;50.824;4.718;2022-11-30T04:15:34;5.70;99.90
12708;DHT22;6418;50.824;4.718;2022-11-30T04:18:00;5.60;99.90
12708;DHT22;6418;50.824;4.718;2022-11-30T04:20:28;5.70;99.90
12708;DHT22;6418;50.824;4.718;2022-11-30T04:22:56;5.70;99.90
12708;DHT22;6418;50.824;4.718;2022-11-30T04:25:24;5.60;99.90
12708;DHT22;6418;50.824;4.718;2022-11-30T04:27:51;5.60;99.90
12708;DHT22;6418;50.824;4.718;2022-11-30T04:30:18;5.60;99.90
12708;DHT22;6418;50.824;4.718;2022-11-30T04:32:45;5.60;99.90
12708;DHT22;6418;50.824;4.718;2022-11-30T04:35:12;5.60;99.90
12708;DHT22;6418;50.824;4.718;2022-11-30T04:37:39;5.70;99.90
12708;DHT22;6418;50.824;4.718;2022-11-30T04:40:07;5.60;99.90
12708;DHT22;6418;50.824;4.718;2022-11-30T04:42:35;5.60;99.90
12708;DHT22;6418;50.824;4.718;2022-11-30T04:45:02;5.60;99.90
12708;DHT22;6418;50.824;4.718;2022-11-30T04:47:29;5.60;99.90
12708;DHT22;6418;50.824;4.718;2022-11-30T04:49:56;5.60;99.90
12708;DHT22;6418;50.824;4.718;2022-11-30T04:52:23;5.60;99.90
12708;DHT22;6418;50.824;4.718;2022-11-30T04:54:50;5.60;99.90
12708;DHT22;6418;50.824;4.718;2022-11-30T04:57:18;5.50;99.90
12708;DHT22;6418;50.824;4.718;2022-11-30T04:59:46;5.60;99.90
12708;DHT22;6418;50.824;4.718;2022-11-30T05:02:13;5.60;99.90
12708;DHT22;6418;50.824;4.718;2022-11-30T05:04:39;5.60;99.90
12708;DHT22;6418;50.824;4.718;2022-11-30T05:07:06;5.60;99.90
12708;DHT22;6418;50.824;4.718;2022-11-30T05:09:33;5.60;99.90
12708;DHT22;6418;50.824;4.718;2022-11-30T05:12:01;5.60;99.90
12708;DHT22;6418;50.824;4.718;2022-11-30T05:14:27;5.60;99.90
12708;DHT22;6418;50.824;4.718;2022-11-30T05:16:56;5.60;99.90
12708;DHT22;6418;50.824;4.718;2022-11-30T05:19:23;5.60;99.90
12708;DHT22;6418;50.824;4.718;2022-11-30T05:21:49;5.60;99.90
12708;DHT22;6418;50.824;4.718;2022-11-30T05:24:16;5.50;99.90
12708;DHT22;6418;50.824;4.718;2022-11-30T05:26:43;5.50;99.90
12708;DHT22;6418;50.824;4.718;2022-11-30T05:29:10;5.50;99.90
12708;DHT22;6418;50.824;4.718;2022-11-30T05:31:37;5.50;99.90
12708;DHT22;6418;50.824;4.718;2022-11-30T05:34:06;5.50;99.90
12708;DHT22;6418;50.824;4.718;2022-11-30T05:36:33;5.50;99.90
12708;DHT22;6418;50.824;4.718;2022-11-30T05:39:00;5.50;99.90
12708;DHT22;6418;50.824;4.718;2022-11-30T05:41:27;5.50;99.90
12708;DHT22;6418;50.824;4.718;2022-11-30T05:43:55;5.50;99.90
12708;DHT22;6418;50.824;4.718;2022-11-30T05:46:22;5.50;99.90
12708;DHT22;6418;50.824;4.718;2022-11-30T05:48:49;5.50;99.90
12708;DHT22;6418;50.824;4.718;2022-11-30T05:51:18;5.50;99.90
12708;DHT22;6418;50.824;4.718;2022-11-30T05:53:46;5.60;99.90
12708;DHT22;6418;50.824;4.718;2022-11-30T05:56:15;5.60;99.90
12708;DHT22;6418;50.824;4.718;2022-11-30T05:58:43;5.50;99.90
12708;DHT22;6418;50.824;4.718;2022-11-30T06:01:17;5.60;99.90
12708;DHT22;6418;50.824;4.718;2022-11-30T06:03:44;5.60;99.90
12708;DHT22;6418;50.824;4.718;2022-11-30T06:06:11;5.60;99.90
12708;DHT22;6418;50.824;4.718;2022-11-30T06:08:39;5.60;99.90
12708;DHT22;6418;50.824;4.718;2022-11-30T06:11:06;5.60;99.90
12708;DHT22;6418;50.824;4.718;2022-11-30T06:13:33;5.60;99.90
12708;DHT22;6418;50.824;4.718;2022-11-30T06:16:01;5.60;99.90
12708;DHT22;6418;50.824;4.718;2022-11-30T06:18:28;5.60;99.90
12708;DHT22;6418;50.824;4.718;2022-11-30T06:20:58;5.60;99.90
12708;DHT22;6418;50.824;4.718;2022-11-30T06:23:26;5.60;99.90
12708;DHT22;6418;50.824;4.718;2022-11-30T06:25:54;5.60;99.90
12708;DHT22;6418;50.824;4.718;2022-11-30T06:28:21;5.60;99.90
12708;DHT22;6418;50.824;4.718;2022-11-30T06:30:48;5.70;99.90
12708;DHT22;6418;50.824;4.718;2022-11-30T06:33:14;6.10;99.90
12708;DHT22;6418;50.824;4.718;2022-11-30T06:35:44;5.60;99.90
12708;DHT22;6418;50.824;4.718;2022-11-30T06:38:11;5.60;99.90
12708;DHT22;6418;50.824;4.718;2022-11-30T06:40:38;5.50;99.90
12708;DHT22;6418;50.824;4.718;2022-11-30T06:43:07;5.60;99.90
12708;DHT22;6418;50.824;4.718;2022-11-30T06:45:34;5.60;99.90
12708;DHT22;6418;50.824;4.718;2022-11-30T06:48:00;5.50;99.90
12708;DHT22;6418;50.824;4.718;2022-11-30T06:50:27;5.60;99.90
12708;DHT22;6418;50.824;4.718;2022-11-30T06:52:55;5.60;99.90
12708;DHT22;6418;50.824;4.718;2022-11-30T06:55:22;5.60;99.90
12708;DHT22;6418;50.824;4.718;2022-11-30T06:57:49;5.60;99.90
12708;DHT22;6418;50.824;4.718;2022-11-30T07:00:17;5.50;99.90
12708;DHT22;6418;50.824;4.718;2022-11-30T07:02:44;5.60;99.90
12708;DHT22;6418;50.824;4.718;2022-11-30T07:05:11;5.60;99.90
12708;DHT22;6418;50.824;4.718;2022-11-30T07:07:38;5.50;99.90
12708;DHT22;6418;50.824;4.718;2022-11-30T07:10:06;5.50;99.90
12708;DHT22;6418;50.824;4.718;2022-11-30T07:12:34;5.50;99.90
12708;DHT22;6418;50.824;4.718;2022-11-30T07:15:01;5.50;99.90
12708;DHT22;6418;50.824;4.718;2022-11-30T07:17:29;5.50;99.90
12708;DHT22;6418;50.824;4.718;2022-11-30T07:19:56;5.60;99.90
12708;DHT22;6418;50.824;4.718;2022-11-30T07:22:23;5.60;99.90
12708;DHT22;6418;50.824;4.718;2022-11-30T07:24:50;5.50;99.90
12708;DHT22;6418;50.824;4.718;2022-11-30T07:27:34;5.60;99.90
12708;DHT22;6418;50.824;4.718;2022-11-30T07:30:01;5.60;99.90
12708;DHT22;6418;50.824;4.718;2022-11-30T07:32:29;5.60;99.90
12708;DHT22;6418;50.824;4.718;2022-11-30T07:34:56;5.70;99.90
12708;DHT22;6418;50.824;4.718;2022-11-30T07:37:23;5.70;99.90
12708;DHT22;6418;50.824;4.718;2022-11-30T07:39:50;5.70;99.90
12708;DHT22;6418;50.824;4.718;2022-11-30T07:42:17;6.10;99.90
12708;DHT22;6418;50.824;4.718;2022-11-30T07:44:44;5.70;99.90
12708;DHT22;6418;50.824;4.718;2022-11-30T07:47:11;5.80;99.90
12708;DHT22;6418;50.824;4.718;2022-11-30T07:49:39;5.70;99.90
12708;DHT22;6418;50.824;4.718;2022-11-30T07:52:06;5.80;99.90
12708;DHT22;6418;50.824;4.718;2022-11-30T07:54:33;5.70;99.90
12708;DHT22;6418;50.824;4.718;2022-11-30T07:57:00;5.70;99.90
12708;DHT22;6418;50.824;4.718;2022-11-30T07:59:27;5.70;99.90
12708;DHT22;6418;50.824;4.718;2022-11-30T08:01:54;5.70;99.90
12708;DHT22;6418;50.824;4.718;2022-11-30T08:04:21;5.70;99.90
12708;DHT22;6418;50.824;4.718;2022-11-30T08:06:49;5.70;99.90
12708;DHT22;6418;50.824;4.718;2022-11-30T08:09:15;5.70;99.90
12708;DHT22;6418;50.824;4.718;2022-11-30T08:11:43;5.70;99.90
12708;DHT22;6418;50.824;4.718;2022-11-30T08:14:10;5.70;99.90
12708;DHT22;6418;50.824;4.718;2022-11-30T08:16:37;5.70;99.90
12708;DHT22;6418;50.824;4.718;2022-11-30T08:19:04;5.70;99.90
12708;DHT22;6418;50.824;4.718;2022-11-30T08:21:32;5.70;99.90
12708;DHT22;6418;50.824;4.718;2022-11-30T08:24:00;5.70;99.90
12708;DHT22;6418;50.824;4.718;2022-11-30T08:26:29;5.70;99.90
12708;DHT22;6418;50.824;4.718;2022-11-30T08:28:57;5.70;99.90
12708;DHT22;6418;50.824;4.718;2022-11-30T08:31:25;5.70;99.90
12708;DHT22;6418;50.824;4.718;2022-11-30T08:33:54;5.70;99.90
12708;DHT22;6418;50.824;4.718;2022-11-30T08:36:23;5.70;99.90
12708;DHT22;6418;50.824;4.718;2022-11-30T08:38:50;5.70;99.90
12708;DHT22;6418;50.824;4.718;2022-11-30T08:41:20;5.70;99.90
12708;DHT22;6418;50.824;4.718;2022-11-30T08:43:48;5.70;99.90
12708;DHT22;6418;50.824;4.718;2022-11-30T08:46:18;5.70;99.90
12708;DHT22;6418;50.824;4.718;2022-11-30T08:48:45;5.70;99.90
12708;DHT22;6418;50.824;4.718;2022-11-30T08:51:14;5.70;99.90
12708;DHT22;6418;50.824;4.718;2022-11-30T08:53:42;5.80;99.90
12708;DHT22;6418;50.824;4.718;2022-11-30T08:56:11;5.80;99.90
12708;DHT22;6418;50.824;4.718;2022-11-30T08:58:40;5.80;99.90
12708;DHT22;6418;50.824;4.718;2022-11-30T09:01:08;5.80;99.90
12708;DHT22;6418;50.824;4.718;2022-11-30T09:03:37;5.80;99.90
12708;DHT22;6418;50.824;4.718;2022-11-30T09:06:06;5.80;99.90
12708;DHT22;6418;50.824;4.718;2022-11-30T09:08:34;5.90;99.90
12708;DHT22;6418;50.824;4.718;2022-11-30T09:11:07;5.90;99.90
12708;DHT22;6418;50.824;4.718;2022-11-30T09:13:34;5.90;99.90
12708;DHT22;6418;50.824;4.718;2022-11-30T09:16:02;5.90;99.90
12708;DHT22;6418;50.824;4.718;2022-11-30T09:18:29;5.90;99.90
12708;DHT22;6418;50.824;4.718;2022-11-30T09:20:58;6.00;99.90
12708;DHT22;6418;50.824;4.718;2022-11-30T09:23:26;6.00;99.90
12708;DHT22;6418;50.824;4.718;2022-11-30T09:25:55;6.00;99.90
12708;DHT22;6418;50.824;4.718;2022-11-30T09:28:22;6.00;99.90
12708;DHT22;6418;50.824;4.718;2022-11-30T09:30:49;7.20;99.90
12708;DHT22;6418;50.824;4.718;2022-11-30T09:33:17;6.00;99.90
12708;DHT22;6418;50.824;4.718;2022-11-30T09:35:53;6.00;99.90
12708;DHT22;6418;50.824;4.718;2022-11-30T09:38:20;6.10;99.90
12708;DHT22;6418;50.824;4.718;2022-11-30T09:40:51;6.10;99.90
12708;DHT22;6418;50.824;4.718;2022-11-30T09:43:28;6.10;99.90
12708;DHT22;6418;50.824;4.718;2022-11-30T09:45:58;6.20;99.90
12708;DHT22;6418;50.824;4.718;2022-11-30T09:51:22;6.20;99.90
12708;DHT22;6418;50.824;4.718;2022-11-30T09:53:54;6.20;99.90
12708;DHT22;6418;50.824;4.718;2022-11-30T09:56:25;6.10;99.90
12708;DHT22;6418;50.824;4.718;2022-11-30T09:58:56;6.20;99.90
12708;DHT22;6418;50.824;4.718;2022-11-30T10:01:25;6.20;99.90
12708;DHT22;6418;50.824;4.718;2022-11-30T10:03:53;6.20;99.90
12708;DHT22;6418;50.824;4.718;2022-11-30T10:06:25;6.20;99.90
12708;DHT22;6418;50.824;4.718;2022-11-30T10:09:15;6.30;99.90
12708;DHT22;6418;50.824;4.718;2022-11-30T10:11:52;6.40;99.90
12708;DHT22;6418;50.824;4.718;2022-11-30T10:17:26;6.40;99.90
12708;DHT22;6418;50.824;4.718;2022-11-30T10:20:05;6.40;99.90
12708;DHT22;6418;50.824;4.718;2022-11-30T10:22:49;6.50;99.90
12708;DHT22;6418;50.824;4.718;2022-11-30T10:25:22;6.50;99.90
12708;DHT22;6418;50.824;4.718;2022-11-30T10:27:50;6.50;99.90
12708;DHT22;6418;50.824;4.718;2022-11-30T10:30:20;6.50;99.90
12708;DHT22;6418;50.824;4.718;2022-11-30T10:32:51;6.50;99.90
12708;DHT22;6418;50.824;4.718;2022-11-30T10:35:32;6.60;99.90
12708;DHT22;6418;50.824;4.718;2022-11-30T10:38:03;6.50;99.90
12708;DHT22;6418;50.824;4.718;2022-11-30T10:40:36;6.50;99.90
12708;DHT22;6418;50.824;4.718;2022-11-30T10:43:13;6.50;99.90
12708;DHT22;6418;50.824;4.718;2022-11-30T10:45:46;6.60;99.90
12708;DHT22;6418;50.824;4.718;2022-11-30T10:48:18;6.60;99.90
12708;DHT22;6418;50.824;4.718;2022-11-30T10:50:47;6.60;99.90
12708;DHT22;6418;50.824;4.718;2022-11-30T10:53:14;6.70;99.90
12708;DHT22;6418;50.824;4.718;2022-11-30T10:55:44;6.70;99.90
12708;DHT22;6418;50.824;4.718;2022-11-30T10:58:20;6.60;99.90
12708;DHT22;6418;50.824;4.718;2022-11-30T11:00:54;6.50;99.90
12708;DHT22;6418;50.824;4.718;2022-11-30T11:03:25;6.60;99.90
12708;DHT22;6418;50.824;4.718;2022-11-30T11:06:11;6.70;99.90
12708;DHT22;6418;50.824;4.718;2022-11-30T11:08:40;6.70;99.90
12708;DHT22;6418;50.824;4.718;2022-11-30T11:11:26;6.60;99.90
12708;DHT22;6418;50.824;4.718;2022-11-30T11:14:11;6.70;99.90
12708;DHT22;6418;50.824;4.718;2022-11-30T11:16:55;6.70;99.90
12708;DHT22;6418;50.824;4.718;2022-11-30T11:19:32;6.70;99.90
12708;DHT22;6418;50.824;4.718;2022-11-30T11:22:02;6.70;99.90
12708;DHT22;6418;50.824;4.718;2022-11-30T11:24:30;6.80;99.90
12708;DHT22;6418;50.824;4.718;2022-11-30T11:26:57;6.80;99.90
12708;DHT22;6418;50.824;4.718;2022-11-30T11:29:26;6.80;99.90
12708;DHT22;6418;50.824;4.718;2022-11-30T11:32:17;6.80;99.90
12708;DHT22;6418;50.824;4.718;2022-11-30T11:34:45;6.80;99.90
12708;DHT22;6418;50.824;4.718;2022-11-30T11:37:18;6.80;99.90
12708;DHT22;6418;50.824;4.718;2022-11-30T11:40:02;6.90;99.90
12708;DHT22;6418;50.824;4.718;2022-11-30T11:42:32;7.00;99.90
12708;DHT22;6418;50.824;4.718;2022-11-30T11:45:00;7.00;99.90
12708;DHT22;6418;50.824;4.718;2022-11-30T11:47:31;7.00;99.90
12708;DHT22;6418;50.824;4.718;2022-11-30T11:50:16;7.10;99.90
12708;DHT22;6418;50.824;4.718;2022-11-30T11:52:46;7.00;99.90
12708;DHT22;6418;50.824;4.718;2022-11-30T11:55:15;7.00;99.90
12708;DHT22;6418;50.824;4.718;2022-11-30T11:57:46;7.00;99.90
12708;DHT22;6418;50.824;4.718;2022-11-30T12:00:15;7.10;99.90
12708;DHT22;6418;50.824;4.718;2022-11-30T12:02:49;7.00;99.90
12708;DHT22;6418;50.824;4.718;2022-11-30T12:05:19;7.10;99.90
12708;DHT22;6418;50.824;4.718;2022-11-30T12:08:01;7.10;99.90
12708;DHT22;6418;50.824;4.718;2022-11-30T12:10:33;7.10;99.90
12708;DHT22;6418;50.824;4.718;2022-11-30T12:13:04;7.20;99.90
12708;DHT22;6418;50.824;4.718;2022-11-30T12:15:40;7.20;99.90
12708;DHT22;6418;50.824;4.718;2022-11-30T12:18:16;7.20;99.90
12708;DHT22;6418;50.824;4.718;2022-11-30T12:20:52;7.20;99.90
12708;DHT22;6418;50.824;4.718;2022-11-30T12:23:37;7.20;99.90
12708;DHT22;6418;50.824;4.718;2022-11-30T12:26:11;7.20;99.90
12708;DHT22;6418;50.824;4.718;2022-11-30T12:28:53;7.30;99.90
12708;DHT22;6418;50.824;4.718;2022-11-30T12:31:32;7.30;99.90
12708;DHT22;6418;50.824;4.718;2022-11-30T12:34:08;7.40;99.90
12708;DHT22;6418;50.824;4.718;2022-11-30T12:36:47;7.40;99.90
12708;DHT22;6418;50.824;4.718;2022-11-30T12:39:26;7.40;99.90
12708;DHT22;6418;50.824;4.718;2022-11-30T12:41:58;7.30;99.90
12708;DHT22;6418;50.824;4.718;2022-11-30T12:44:38;7.30;99.90
12708;DHT22;6418;50.824;4.718;2022-11-30T12:47:21;7.40;99.90
12708;DHT22;6418;50.824;4.718;2022-11-30T12:50:02;7.40;99.90
12708;DHT22;6418;50.824;4.718;2022-11-30T12:52:39;7.40;99.90
12708;DHT22;6418;50.824;4.718;2022-11-30T12:55:19;7.50;99.90
12708;DHT22;6418;50.824;4.718;2022-11-30T12:57:57;7.60;99.90
12708;DHT22;6418;50.824;4.718;2022-11-30T13:00:27;7.50;99.90
12708;DHT22;6418;50.824;4.718;2022-11-30T13:03:19;7.40;99.90
12708;DHT22;6418;50.824;4.718;2022-11-30T13:05:52;7.50;99.90
12708;DHT22;6418;50.824;4.718;2022-11-30T13:08:26;7.60;99.90
12708;DHT22;6418;50.824;4.718;2022-11-30T13:10:56;7.60;99.90
12708;DHT22;6418;50.824;4.718;2022-11-30T13:13:28;7.50;99.90
12708;DHT22;6418;50.824;4.718;2022-11-30T13:15:58;7.60;99.90
12708;DHT22;6418;50.824;4.718;2022-11-30T13:18:26;7.50;99.90
12708;DHT22;6418;50.824;4.718;2022-11-30T13:20:56;7.50;99.90
12708;DHT22;6418;50.824;4.718;2022-11-30T13:23:28;7.40;99.90
12708;DHT22;6418;50.824;4.718;2022-11-30T13:26:06;7.50;99.90
12708;DHT22;6418;50.824;4.718;2022-11-30T13:28:49;7.50;99.90
12708;DHT22;6418;50.824;4.718;2022-11-30T13:31:21;7.50;99.90
12708;DHT22;6418;50.824;4.718;2022-11-30T13:33:57;7.50;99.90
12708;DHT22;6418;50.824;4.718;2022-11-30T13:36:30;7.50;99.90
12708;DHT22;6418;50.824;4.718;2022-11-30T13:39:24;7.50;99.90
12708;DHT22;6418;50.824;4.718;2022-11-30T13:42:25;7.40;99.90
12708;DHT22;6418;50.824;4.718;2022-11-30T13:44:55;7.30;99.90
12708;DHT22;6418;50.824;4.718;2022-11-30T13:47:27;7.30;99.90
12708;DHT22;6418;50.824;4.718;2022-11-30T13:49:56;7.40;99.90
12708;DHT22;6418;50.824;4.718;2022-11-30T13:55:48;7.40;99.90
12708;DHT22;6418;50.824;4.718;2022-11-30T13:58:18;7.40;99.90
12708;DHT22;6418;50.824;4.718;2022-11-30T14:00:59;7.40;99.90
12708;DHT22;6418;50.824;4.718;2022-11-30T14:03:27;7.50;99.90
12708;DHT22;6418;50.824;4.718;2022-11-30T14:05:56;7.40;99.90
12708;DHT22;6418;50.824;4.718;2022-11-30T14:08:35;7.50;99.90
12708;DHT22;6418;50.824;4.718;2022-11-30T14:14:39;7.30;99.90
12708;DHT22;6418;50.824;4.718;2022-11-30T14:17:19;7.40;99.90
12708;DHT22;6418;50.824;4.718;2022-11-30T14:19:49;7.30;99.90
12708;DHT22;6418;50.824;4.718;2022-11-30T14:22:17;7.30;99.90
12708;DHT22;6418;50.824;4.718;2022-11-30T14:24:45;7.40;99.90
12708;DHT22;6418;50.824;4.718;2022-11-30T14:27:15;7.30;99.90
12708;DHT22;6418;50.824;4.718;2022-11-30T14:29:47;7.30;99.90
12708;DHT22;6418;50.824;4.718;2022-11-30T14:32:23;7.40;99.90
12708;DHT22;6418;50.824;4.718;2022-11-30T14:34:54;7.40;99.90
12708;DHT22;6418;50.824;4.718;2022-11-30T14:37:32;7.40;99.90
12708;DHT22;6418;50.824;4.718;2022-11-30T14:40:02;7.30;99.90
12708;DHT22;6418;50.824;4.718;2022-11-30T14:42:31;7.20;99.90
12708;DHT22;6418;50.824;4.718;2022-11-30T14:45:00;7.30;99.90
12708;DHT22;6418;50.824;4.718;2022-11-30T14:47:29;7.20;99.90
12708;DHT22;6418;50.824;4.718;2022-11-30T14:49:58;7.20;99.90
12708;DHT22;6418;50.824;4.718;2022-11-30T14:52:46;7.20;99.90
12708;DHT22;6418;50.824;4.718;2022-11-30T14:55:23;7.10;99.90
12708;DHT22;6418;50.824;4.718;2022-11-30T14:57:58;7.10;99.90
12708;DHT22;6418;50.824;4.718;2022-11-30T15:00:35;7.10;99.90
12708;DHT22;6418;50.824;4.718;2022-11-30T15:03:04;7.10;99.90
12708;DHT22;6418;50.824;4.718;2022-11-30T15:05:31;7.10;99.90
12708;DHT22;6418;50.824;4.718;2022-11-30T15:07:58;7.00;99.90
12708;DHT22;6418;50.824;4.718;2022-11-30T15:10:27;7.00;99.90
12708;DHT22;6418;50.824;4.718;2022-11-30T15:12:55;7.00;99.90
12708;DHT22;6418;50.824;4.718;2022-11-30T15:15:24;7.20;99.90
12708;DHT22;6418;50.824;4.718;2022-11-30T15:17:55;7.00;99.90
12708;DHT22;6418;50.824;4.718;2022-11-30T15:20:27;7.00;99.90
12708;DHT22;6418;50.824;4.718;2022-11-30T15:22:57;6.90;99.90
12708;DHT22;6418;50.824;4.718;2022-11-30T15:25:33;6.90;99.90
12708;DHT22;6418;50.824;4.718;2022-11-30T15:28:03;6.80;99.90
12708;DHT22;6418;50.824;4.718;2022-11-30T15:30:31;6.70;99.90
12708;DHT22;6418;50.824;4.718;2022-11-30T15:33:01;6.60;99.90
12708;DHT22;6418;50.824;4.718;2022-11-30T15:35:28;6.70;99.90
12708;DHT22;6418;50.824;4.718;2022-11-30T15:37:55;6.60;99.90
12708;DHT22;6418;50.824;4.718;2022-11-30T15:40:32;6.60;99.90
12708;DHT22;6418;50.824;4.718;2022-11-30T15:43:00;6.50;99.90
12708;DHT22;6418;50.824;4.718;2022-11-30T15:45:29;6.50;99.90
12708;DHT22;6418;50.824;4.718;2022-11-30T15:47:57;6.40;99.90
12708;DHT22;6418;50.824;4.718;2022-11-30T15:50:36;6.40;99.90
12708;DHT22;6418;50.824;4.718;2022-11-30T15:53:23;6.30;99.90
12708;DHT22;6418;50.824;4.718;2022-11-30T15:55:51;6.30;99.90
12708;DHT22;6418;50.824;4.718;2022-11-30T15:58:31;6.20;99.90
12708;DHT22;6418;50.824;4.718;2022-11-30T16:01:02;6.00;99.90
12708;DHT22;6418;50.824;4.718;2022-11-30T16:03:31;5.90;99.90
12708;DHT22;6418;50.824;4.718;2022-11-30T16:06:01;5.90;99.90
12708;DHT22;6418;50.824;4.718;2022-11-30T16:08:30;5.80;99.90
12708;DHT22;6418;50.824;4.718;2022-11-30T16:10:57;5.80;99.90
12708;DHT22;6418;50.824;4.718;2022-11-30T16:13:26;5.80;99.90
12708;DHT22;6418;50.824;4.718;2022-11-30T16:15:55;5.80;99.90
12708;DHT22;6418;50.824;4.718;2022-11-30T16:18:25;5.70;99.90
12708;DHT22;6418;50.824;4.718;2022-11-30T16:20:54;5.70;99.90
12708;DHT22;6418;50.824;4.718;2022-11-30T16:23:22;5.60;99.90
12708;DHT22;6418;50.824;4.718;2022-11-30T16:25:50;5.50;99.90
12708;DHT22;6418;50.824;4.718;2022-11-30T16:28:18;5.50;99.90
12708;DHT22;6418;50.824;4.718;2022-11-30T16:30:45;5.50;99.90
12708;DHT22;6418;50.824;4.718;2022-11-30T16:33:13;5.50;99.90
12708;DHT22;6418;50.824;4.718;2022-11-30T16:35:45;5.50;99.90